createdAt,value
2015-07-18T00:00:17.935Z,95836
2015-07-18T00:00:36.420Z,95824
2015-07-18T00:00:54.795Z,95821
2015-07-18T00:01:13.312Z,95826
2015-07-18T00:01:31.672Z,95821
2015-07-18T00:01:50.156Z,95835
2015-07-18T00:02:08.656Z,95820
2015-07-18T00:02:27.220Z,95823
2015-07-18T00:02:45.580Z,95829
2015-07-18T00:03:04.330Z,95824
2015-07-18T00:03:22.800Z,95835
2015-07-18T00:03:41.425Z,95829
2015-07-18T00:03:59.925Z,95823
2015-07-18T00:04:18.365Z,95826
2015-07-18T00:04:36.849Z,95826
2015-07-18T00:04:55.318Z,95823
2015-07-18T00:05:13.724Z,95835
2015-07-18T00:05:32.133Z,95819
2015-07-18T00:05:50.523Z,95830
2015-07-18T00:06:08.945Z,95824
2015-07-18T00:06:27.353Z,95821
2015-07-18T00:06:45.900Z,95827
2015-07-18T00:07:03.744Z,95821
2015-07-18T00:07:22.324Z,95822
2015-07-18T00:07:40.699Z,95822
2015-07-18T00:07:59.152Z,95819
2015-07-18T00:08:17.559Z,95816
2015-07-18T00:08:36.186Z,95816
2015-07-18T00:08:55.076Z,95825
2015-07-18T00:09:13.482Z,95820
2015-07-18T00:09:32.047Z,95814
2015-07-18T00:09:50.641Z,95816
2015-07-18T00:10:09.016Z,95813
2015-07-18T00:10:27.548Z,95810
2015-07-18T00:10:46.095Z,95810
2015-07-18T00:11:04.126Z,95813
2015-07-18T00:11:22.517Z,95820
2015-07-18T00:11:41.004Z,95811
2015-07-18T00:11:59.410Z,95820
2015-07-18T00:12:18.192Z,95822
2015-07-18T00:12:36.818Z,95811
2015-07-18T00:12:55.318Z,95813
2015-07-18T00:13:13.896Z,95810
2015-07-18T00:13:32.492Z,95808
2015-07-18T00:13:50.977Z,95819
2015-07-18T00:14:09.414Z,95819
2015-07-18T00:14:27.838Z,95816
2015-07-18T00:14:46.260Z,95821
2015-07-18T00:15:04.760Z,95816
2015-07-18T00:15:23.182Z,95821
2015-07-18T00:15:41.699Z,95824
2015-07-18T00:16:00.152Z,95824
2015-07-18T00:16:18.667Z,95818
2015-07-18T00:16:37.060Z,95813
2015-07-18T00:16:55.622Z,95818
2015-07-18T00:17:14.091Z,95818
2015-07-18T00:17:32.547Z,95821
2015-07-18T00:17:51.016Z,95818
2015-07-18T00:18:09.516Z,95824
2015-07-18T00:18:27.891Z,95828
2015-07-18T00:18:46.518Z,95831
2015-07-18T00:19:05.206Z,95817
2015-07-18T00:19:23.659Z,95812
2015-07-18T00:19:42.316Z,95817
2015-07-18T00:20:00.800Z,95820
2015-07-18T00:20:19.191Z,95828
2015-07-18T00:20:37.615Z,95822
2015-07-18T00:20:56.021Z,95822
2015-07-18T00:21:14.568Z,95814
2015-07-18T00:21:33.052Z,95814
2015-07-18T00:21:51.430Z,95813
2015-07-18T00:22:10.008Z,95805
2015-07-18T00:22:28.368Z,95819
2015-07-18T00:22:47.119Z,95805
2015-07-18T00:23:05.572Z,95808
2015-07-18T00:23:23.994Z,95813
2015-07-18T00:23:42.371Z,95802
2015-07-18T00:24:00.933Z,95811
2015-07-18T00:24:19.418Z,95809
2015-07-18T00:24:37.824Z,95806
2015-07-18T00:24:56.201Z,95803
2015-07-18T00:25:14.638Z,95800
2015-07-18T00:25:32.467Z,95800
2015-07-18T00:25:50.844Z,95803
2015-07-18T00:26:09.250Z,95802
2015-07-18T00:26:27.687Z,95808
2015-07-18T00:26:46.080Z,95797
2015-07-18T00:27:04.627Z,95803
2015-07-18T00:27:23.002Z,95794
2015-07-18T00:27:41.392Z,95797
2015-07-18T00:27:59.863Z,95797
2015-07-18T00:28:18.316Z,95800
2015-07-18T00:28:36.988Z,95784
2015-07-18T00:28:55.850Z,95801
2015-07-18T00:29:14.428Z,95792
2015-07-18T00:29:32.881Z,95795
2015-07-18T00:29:51.289Z,95798
2015-07-18T00:30:09.711Z,95799
2015-07-18T00:30:28.086Z,95801
2015-07-18T00:30:46.570Z,95804
2015-07-18T00:31:05.134Z,95801
2015-07-18T00:31:23.571Z,95796
2015-07-18T00:31:41.962Z,95795
2015-07-18T00:32:00.402Z,95801
2015-07-18T00:32:18.777Z,95804
2015-07-18T00:32:37.199Z,95805
2015-07-18T00:32:55.608Z,95804
2015-07-18T00:33:14.061Z,95804
2015-07-18T00:33:32.795Z,95804
2015-07-18T00:33:51.391Z,95801
2015-07-18T00:34:09.860Z,95810
2015-07-18T00:34:28.344Z,95810
2015-07-18T00:34:46.766Z,95813
2015-07-18T00:35:05.282Z,95801
2015-07-18T00:35:23.657Z,95807
2015-07-18T00:35:42.189Z,95807
2015-07-18T00:36:00.723Z,95810
2015-07-18T00:36:19.285Z,95804
2015-07-18T00:36:37.832Z,95798
2015-07-18T00:36:56.381Z,95806
2015-07-18T00:37:14.850Z,95812
2015-07-18T00:37:33.225Z,95801
2015-07-18T00:37:51.756Z,95810
2015-07-18T00:38:10.164Z,95812
2015-07-18T00:38:28.602Z,95806
2015-07-18T00:38:46.961Z,95810
2015-07-18T00:39:05.472Z,95813
2015-07-18T00:39:23.847Z,95810
2015-07-18T00:39:42.222Z,95814
2015-07-18T00:40:00.858Z,95813
2015-07-18T00:40:19.233Z,95810
2015-07-18T00:40:37.717Z,95811
2015-07-18T00:40:55.639Z,95814
2015-07-18T00:41:14.104Z,95812
2015-07-18T00:41:32.541Z,95812
2015-07-18T00:41:50.963Z,95820
2015-07-18T00:42:09.475Z,95805
2015-07-18T00:42:28.022Z,95814
2015-07-18T00:42:46.834Z,95809
2015-07-18T00:43:04.672Z,95815
2015-07-18T00:43:23.172Z,95814
2015-07-18T00:43:41.547Z,95809
2015-07-18T00:43:59.938Z,95814
2015-07-18T00:44:18.329Z,95811
2015-07-18T00:44:37.110Z,95805
2015-07-18T00:44:55.516Z,95803
2015-07-18T00:45:13.908Z,95800
2015-07-18T00:45:32.471Z,95806
2015-07-18T00:45:50.877Z,95800
2015-07-18T00:46:09.363Z,95803
2015-07-18T00:46:28.691Z,95805
2015-07-18T00:46:47.379Z,95805
2015-07-18T00:47:06.004Z,95806
2015-07-18T00:47:24.396Z,95803
2015-07-18T00:47:42.849Z,95803
2015-07-18T00:48:01.349Z,95808
2015-07-18T00:48:19.801Z,95811
2015-07-18T00:48:37.551Z,95805
2015-07-18T00:48:56.051Z,95800
2015-07-18T00:49:14.605Z,95808
2015-07-18T00:49:33.168Z,95808
2015-07-18T00:49:51.589Z,95799
2015-07-18T00:50:10.355Z,95807
2015-07-18T00:50:28.879Z,95808
2015-07-18T00:50:47.441Z,95809
2015-07-18T00:51:05.816Z,95809
2015-07-18T00:51:24.386Z,95809
2015-07-18T00:51:42.979Z,95815
2015-07-18T00:52:01.386Z,95815
2015-07-18T00:52:19.753Z,95812
2015-07-18T00:52:38.300Z,95812
2015-07-18T00:52:56.659Z,95815
2015-07-18T00:53:15.050Z,95817
2015-07-18T00:53:33.556Z,95815
2015-07-18T00:53:52.103Z,95816
2015-07-18T00:54:10.806Z,95812
2015-07-18T00:54:29.201Z,95812
2015-07-18T00:54:47.826Z,95812
2015-07-18T00:55:06.201Z,95817
2015-07-18T00:55:24.564Z,95820
2015-07-18T00:55:43.126Z,95814
2015-07-18T00:56:01.626Z,95814
2015-07-18T00:56:20.064Z,95823
2015-07-18T00:56:38.693Z,95815
2015-07-18T00:56:57.052Z,95818
2015-07-18T00:57:15.443Z,95817
2015-07-18T00:57:34.009Z,95829
2015-07-18T00:57:52.416Z,95823
2015-07-18T00:58:11.056Z,95823
2015-07-18T00:58:29.731Z,95823
2015-07-18T00:58:48.137Z,95825
2015-07-18T00:59:06.637Z,95817
2015-07-18T00:59:25.153Z,95814
2015-07-18T00:59:43.594Z,95811
2015-07-18T01:00:02.140Z,95820
2015-07-18T01:00:20.609Z,95833
2015-07-18T01:00:39.016Z,95831
2015-07-18T01:00:57.391Z,95833
2015-07-18T01:01:15.923Z,95822
2015-07-18T01:01:33.644Z,95817
2015-07-18T01:01:52.098Z,95822
2015-07-18T01:02:10.473Z,95828
2015-07-18T01:02:28.863Z,95833
2015-07-18T01:02:47.288Z,95822
2015-07-18T01:03:05.694Z,95828
2015-07-18T01:03:24.147Z,95834
2015-07-18T01:03:42.603Z,95825
2015-07-18T01:04:01.165Z,95828
2015-07-18T01:04:19.524Z,95828
2015-07-18T01:04:37.980Z,95834
2015-07-18T01:04:55.901Z,95831
2015-07-18T01:05:14.261Z,95831
2015-07-18T01:05:32.839Z,95823
2015-07-18T01:05:51.311Z,95833
2015-07-18T01:06:09.764Z,95830
2015-07-18T01:06:28.139Z,95836
2015-07-18T01:06:46.531Z,95834
2015-07-18T01:07:05.125Z,95831
2015-07-18T01:07:23.531Z,95828
2015-07-18T01:07:41.894Z,95828
2015-07-18T01:08:00.441Z,95832
2015-07-18T01:08:18.894Z,95832
2015-07-18T01:08:37.269Z,95835
2015-07-18T01:08:55.755Z,95837
2015-07-18T01:09:14.208Z,95832
2015-07-18T01:09:32.583Z,95837
2015-07-18T01:09:50.944Z,95831
2015-07-18T01:10:09.319Z,95843
2015-07-18T01:10:27.725Z,95840
2015-07-18T01:10:46.181Z,95838
2015-07-18T01:11:04.572Z,95835
2015-07-18T01:11:22.978Z,95835
2015-07-18T01:11:41.353Z,95829
2015-07-18T01:11:59.746Z,95835
2015-07-18T01:12:18.339Z,95841
2015-07-18T01:12:36.746Z,95830
2015-07-18T01:12:55.185Z,95838
2015-07-18T01:13:13.685Z,95838
2015-07-18T01:13:32.138Z,95830
2015-07-18T01:13:50.530Z,95839
2015-07-18T01:14:09.092Z,95831
2015-07-18T01:14:27.499Z,95845
2015-07-18T01:14:45.874Z,95842
2015-07-18T01:15:04.344Z,95842
2015-07-18T01:15:22.782Z,95842
2015-07-18T01:15:41.282Z,95831
2015-07-18T01:15:59.674Z,95840
2015-07-18T01:16:18.096Z,95837
2015-07-18T01:16:36.628Z,95834
2015-07-18T01:16:55.411Z,95845
2015-07-18T01:17:13.770Z,95834
2015-07-18T01:17:32.239Z,95843
2015-07-18T01:17:50.522Z,95846
2015-07-18T01:18:09.022Z,95835
2015-07-18T01:18:27.507Z,95840
2015-07-18T01:18:45.882Z,95829
2015-07-18T01:19:04.243Z,95831
2015-07-18T01:19:22.618Z,95831
2015-07-18T01:19:41.149Z,95831
2015-07-18T01:19:59.729Z,95830
2015-07-18T01:20:17.682Z,95833
2015-07-18T01:20:36.198Z,95836
2015-07-18T01:20:54.669Z,95833
2015-07-18T01:21:13.153Z,95840
2015-07-18T01:21:31.684Z,95832
2015-07-18T01:21:50.091Z,95834
2015-07-18T01:22:08.546Z,95828
2015-07-18T01:22:26.936Z,95836
2015-07-18T01:22:45.421Z,95839
2015-07-18T01:23:04.048Z,95836
2015-07-18T01:23:22.579Z,95837
2015-07-18T01:23:40.970Z,95834
2015-07-18T01:23:59.472Z,95831
2015-07-18T01:24:17.987Z,95845
2015-07-18T01:24:36.440Z,95834
2015-07-18T01:24:54.878Z,95843
2015-07-18T01:25:13.302Z,95831
2015-07-18T01:25:31.849Z,95840
2015-07-18T01:25:50.552Z,95832
2015-07-18T01:26:08.929Z,95846
2015-07-18T01:26:27.554Z,95840
2015-07-18T01:26:45.944Z,95849
2015-07-18T01:27:04.587Z,95838
2015-07-18T01:27:23.337Z,95847
2015-07-18T01:27:41.696Z,95839
2015-07-18T01:28:00.181Z,95845
2015-07-18T01:28:18.666Z,95843
2015-07-18T01:28:37.276Z,95854
2015-07-18T01:28:55.729Z,95851
2015-07-18T01:29:14.232Z,95845
2015-07-18T01:29:32.841Z,95848
2015-07-18T01:29:51.357Z,95847
2015-07-18T01:30:09.859Z,95853
2015-07-18T01:30:28.468Z,95856
2015-07-18T01:30:47.140Z,95853
2015-07-18T01:31:05.736Z,95850
2015-07-18T01:31:24.095Z,95851
2015-07-18T01:31:42.501Z,95857
2015-07-18T01:32:01.079Z,95854
2015-07-18T01:32:19.643Z,95851
2015-07-18T01:32:38.237Z,95851
2015-07-18T01:32:56.643Z,95845
2015-07-18T01:33:15.208Z,95851
2015-07-18T01:33:33.677Z,95848
2015-07-18T01:33:52.177Z,95848
2015-07-18T01:34:10.648Z,95851
2015-07-18T01:34:29.039Z,95850
2015-07-18T01:34:47.523Z,95844
2015-07-18T01:35:05.914Z,95853
2015-07-18T01:35:24.571Z,95853
2015-07-18T01:35:43.133Z,95856
2015-07-18T01:36:01.524Z,95853
2015-07-18T01:36:20.010Z,95856
2015-07-18T01:36:38.479Z,95853
2015-07-18T01:36:56.995Z,95859
2015-07-18T01:37:15.606Z,95848
2015-07-18T01:37:33.981Z,95853
2015-07-18T01:37:52.387Z,95851
2015-07-18T01:38:10.827Z,95863
2015-07-18T01:38:29.483Z,95854
2015-07-18T01:38:47.874Z,95854
2015-07-18T01:39:06.514Z,95857
2015-07-18T01:39:25.219Z,95857
2015-07-18T01:39:43.719Z,95863
2015-07-18T01:40:02.423Z,95860
2015-07-18T01:40:20.909Z,95851
2015-07-18T01:40:39.331Z,95865
2015-07-18T01:40:57.784Z,95859
2015-07-18T01:41:16.317Z,95868
2015-07-18T01:41:34.708Z,95857
2015-07-18T01:41:53.145Z,95866
2015-07-18T01:42:11.520Z,95860
2015-07-18T01:42:30.100Z,95861
2015-07-18T01:42:48.585Z,95858
2015-07-18T01:43:07.022Z,95858
2015-07-18T01:43:24.822Z,95858
2015-07-18T01:43:43.635Z,95860
2015-07-18T01:44:01.494Z,95846
2015-07-18T01:44:20.042Z,95854
2015-07-18T01:44:37.901Z,95852
2015-07-18T01:44:56.526Z,95852
2015-07-18T01:45:14.917Z,95851
2015-07-18T01:45:33.341Z,95860
2015-07-18T01:45:51.716Z,95846
2015-07-18T01:46:10.388Z,95849
2015-07-18T01:46:28.796Z,95853
2015-07-18T01:46:47.374Z,95853
2015-07-18T01:47:05.827Z,95856
2015-07-18T01:47:24.219Z,95853
2015-07-18T01:47:42.859Z,95850
2015-07-18T01:48:01.406Z,95858
2015-07-18T01:48:19.891Z,95855
2015-07-18T01:48:38.330Z,95847
2015-07-18T01:48:56.111Z,95850
2015-07-18T01:49:14.471Z,95853
2015-07-18T01:49:32.849Z,95852
2015-07-18T01:49:51.239Z,95852
2015-07-18T01:50:09.708Z,95849
2015-07-18T01:50:28.226Z,95850
2015-07-18T01:50:46.835Z,95850
2015-07-18T01:51:05.257Z,95849
2015-07-18T01:51:23.163Z,95849
2015-07-18T01:51:41.790Z,95849
2015-07-18T01:52:00.290Z,95841
2015-07-18T01:52:18.650Z,95841
2015-07-18T01:52:37.636Z,95832
2015-07-18T01:52:56.136Z,95843
2015-07-18T01:53:14.714Z,95840
2015-07-18T01:53:33.340Z,95832
2015-07-18T01:53:51.887Z,95832
2015-07-18T01:54:10.371Z,95837
2015-07-18T01:54:28.762Z,95832
2015-07-18T01:54:47.406Z,95843
2015-07-18T01:55:05.859Z,95837
2015-07-18T01:55:23.703Z,95831
2015-07-18T01:55:42.251Z,95840
2015-07-18T01:56:00.814Z,95831
2015-07-18T01:56:19.376Z,95842
2015-07-18T01:56:37.909Z,95832
2015-07-18T01:56:56.299Z,95837
2015-07-18T01:57:14.956Z,95844
2015-07-18T01:57:33.395Z,95841
2015-07-18T01:57:52.036Z,95841
2015-07-18T01:58:10.520Z,95835
2015-07-18T01:58:28.989Z,95835
2015-07-18T01:58:47.648Z,95848
2015-07-18T01:59:06.086Z,95828
2015-07-18T01:59:24.554Z,95840
2015-07-18T01:59:42.977Z,95832
2015-07-18T02:00:01.352Z,95829
2015-07-18T02:00:19.774Z,95823
2015-07-18T02:00:38.182Z,95832
2015-07-18T02:00:56.667Z,95832
2015-07-18T02:01:15.057Z,95832
2015-07-18T02:01:33.448Z,95835
2015-07-18T02:01:51.950Z,95837
2015-07-18T02:02:10.544Z,95832
2015-07-18T02:02:29.137Z,95840
2015-07-18T02:02:47.624Z,95842
2015-07-18T02:03:06.218Z,95837
2015-07-18T02:03:24.702Z,95832
2015-07-18T02:03:43.141Z,95832
2015-07-18T02:04:01.798Z,95829
2015-07-18T02:04:20.188Z,95843
2015-07-18T02:04:38.579Z,95834
2015-07-18T02:04:57.065Z,95837
2015-07-18T02:05:14.987Z,95829
2015-07-18T02:05:33.347Z,95834
2015-07-18T02:05:51.770Z,95842
2015-07-18T02:06:10.239Z,95831
2015-07-18T02:06:28.645Z,95833
2015-07-18T02:06:47.054Z,95836
2015-07-18T02:07:05.616Z,95839
2015-07-18T02:07:24.147Z,95843
2015-07-18T02:07:42.569Z,95837
2015-07-18T02:08:00.478Z,95837
2015-07-18T02:08:18.837Z,95843
2015-07-18T02:08:37.399Z,95846
2015-07-18T02:08:55.792Z,95849
2015-07-18T02:09:14.308Z,95838
2015-07-18T02:09:32.823Z,95843
2015-07-18T02:09:51.325Z,95837
2015-07-18T02:10:09.872Z,95839
2015-07-18T02:10:28.419Z,95842
2015-07-18T02:10:47.091Z,95839
2015-07-18T02:11:05.546Z,95842
2015-07-18T02:11:23.968Z,95840
2015-07-18T02:11:41.702Z,95843
2015-07-18T02:12:00.126Z,95842
2015-07-18T02:12:18.501Z,95848
2015-07-18T02:12:36.876Z,95845
2015-07-18T02:12:55.238Z,95845
2015-07-18T02:13:13.597Z,95839
2015-07-18T02:13:32.019Z,95847
2015-07-18T02:13:50.378Z,95850
2015-07-18T02:14:08.755Z,95852
2015-07-18T02:14:27.255Z,95849
2015-07-18T02:14:45.661Z,95855
2015-07-18T02:15:04.038Z,95844
2015-07-18T02:15:22.445Z,95850
2015-07-18T02:15:40.913Z,95841
2015-07-18T02:15:59.587Z,95844
2015-07-18T02:16:18.009Z,95850
2015-07-18T02:16:36.478Z,95844
2015-07-18T02:16:54.900Z,95855
2015-07-18T02:17:13.371Z,95849
2015-07-18T02:17:32.183Z,95855
2015-07-18T02:17:49.902Z,95853
2015-07-18T02:18:08.325Z,95855
2015-07-18T02:18:26.965Z,95855
2015-07-18T02:18:45.543Z,95849
2015-07-18T02:19:04.043Z,95849
2015-07-18T02:19:22.500Z,95861
2015-07-18T02:19:40.906Z,95856
2015-07-18T02:19:59.312Z,95865
2015-07-18T02:20:17.752Z,95862
2015-07-18T02:20:36.220Z,95854
2015-07-18T02:20:54.689Z,95860
2015-07-18T02:21:13.082Z,95862
2015-07-18T02:21:31.035Z,95862
2015-07-18T02:21:49.425Z,95864
2015-07-18T02:22:07.800Z,95868
2015-07-18T02:22:26.240Z,95876
2015-07-18T02:22:44.693Z,95876
2015-07-18T02:23:03.131Z,95876
2015-07-18T02:23:21.600Z,95893
2015-07-18T02:23:40.007Z,95891
2015-07-18T02:23:58.522Z,95896
2015-07-18T02:24:16.978Z,95904
2015-07-18T02:24:35.431Z,95909
2015-07-18T02:24:53.822Z,95912
2015-07-18T02:25:12.197Z,95914
2015-07-18T02:25:30.574Z,95924
2015-07-18T02:25:48.980Z,95914
2015-07-18T02:26:07.418Z,95919
2015-07-18T02:26:25.779Z,95914
2015-07-18T02:26:44.514Z,95918
2015-07-18T02:27:03.170Z,95916
2015-07-18T02:27:21.608Z,95913
2015-07-18T02:27:40.077Z,95904
2015-07-18T02:27:58.546Z,95890
2015-07-18T02:28:16.923Z,95893
2015-07-18T02:28:35.407Z,95897
2015-07-18T02:28:53.798Z,95891
2015-07-18T02:29:12.188Z,95899
2015-07-18T02:29:30.613Z,95890
2015-07-18T02:29:49.035Z,95909
2015-07-18T02:30:07.535Z,95909
2015-07-18T02:30:26.036Z,95909
2015-07-18T02:30:44.458Z,95907
2015-07-18T02:31:03.005Z,95916
2015-07-18T02:31:21.477Z,95916
2015-07-18T02:31:40.039Z,95911
2015-07-18T02:31:58.414Z,95911
2015-07-18T02:32:16.774Z,95913
2015-07-18T02:32:35.275Z,95909
2015-07-18T02:32:53.712Z,95906
2015-07-18T02:33:12.212Z,95905
2015-07-18T02:33:30.792Z,95918
2015-07-18T02:33:49.308Z,95907
2015-07-18T02:34:07.058Z,95907
2015-07-18T02:34:25.436Z,95902
2015-07-18T02:34:43.936Z,95900
2015-07-18T02:35:02.311Z,95916
2015-07-18T02:35:20.733Z,95903
2015-07-18T02:35:39.109Z,95906
2015-07-18T02:35:57.765Z,95901
2015-07-18T02:36:16.359Z,95895
2015-07-18T02:36:35.048Z,95907
2015-07-18T02:36:53.673Z,95909
2015-07-18T02:37:12.189Z,95903
2015-07-18T02:37:30.706Z,95905
2015-07-18T02:37:49.175Z,95913
2015-07-18T02:38:07.738Z,95914
2015-07-18T02:38:26.300Z,95902
2015-07-18T02:38:44.865Z,95908
2015-07-18T02:39:03.599Z,95907
2015-07-18T02:39:22.505Z,95910
2015-07-18T02:39:41.148Z,95917
2015-07-18T02:39:59.742Z,95917
2015-07-18T02:40:18.195Z,95910
2015-07-18T02:40:36.633Z,95916
2015-07-18T02:40:55.086Z,95908
2015-07-18T02:41:13.555Z,95913
2015-07-18T02:41:32.043Z,95913
2015-07-18T02:41:50.418Z,95915
2015-07-18T02:42:08.824Z,95910
2015-07-18T02:42:27.339Z,95907
2015-07-18T02:42:45.795Z,95907
2015-07-18T02:43:04.373Z,95905
2015-07-18T02:43:22.888Z,95910
2015-07-18T02:44:00.593Z,95915
2015-07-18T02:44:19.109Z,95912
2015-07-18T02:44:37.877Z,95903
2015-07-18T02:44:56.267Z,95908
2015-07-18T02:45:14.689Z,95908
2015-07-18T02:45:33.064Z,95908
2015-07-18T02:45:51.551Z,95910
2015-07-18T02:46:09.957Z,95908
2015-07-18T02:46:28.535Z,95905
2015-07-18T02:46:46.896Z,95905
2015-07-18T02:47:05.334Z,95913
2015-07-18T02:47:23.709Z,95910
2015-07-18T02:47:42.163Z,95911
2015-07-18T02:48:00.725Z,95911
2015-07-18T02:48:19.304Z,95907
2015-07-18T02:48:37.850Z,95899
2015-07-18T02:48:56.588Z,95908
2015-07-18T02:49:15.150Z,95905
2015-07-18T02:49:33.541Z,95902
2015-07-18T02:49:51.965Z,95913
2015-07-18T02:50:10.402Z,95901
2015-07-18T02:50:28.887Z,95909
2015-07-18T02:50:47.310Z,95904
2015-07-18T02:51:05.794Z,95904
2015-07-18T02:51:24.372Z,95895
2015-07-18T02:51:42.731Z,95901
2015-07-18T02:52:01.187Z,95904
2015-07-18T02:52:19.687Z,95904
2015-07-18T02:52:38.202Z,95904
2015-07-18T02:52:56.799Z,95901
2015-07-18T02:53:15.252Z,95898
2015-07-18T02:53:33.674Z,95904
2015-07-18T02:53:52.050Z,95907
2015-07-18T02:54:10.472Z,95904
2015-07-18T02:54:28.956Z,95905
2015-07-18T02:54:47.659Z,95902
2015-07-18T02:55:06.052Z,95905
2015-07-18T02:55:24.599Z,95909
2015-07-18T02:55:43.161Z,95902
2015-07-18T02:56:01.867Z,95902
2015-07-18T02:56:20.227Z,95905
2015-07-18T02:56:38.821Z,95897
2015-07-18T02:56:57.260Z,95901
2015-07-18T02:57:15.791Z,95904
2015-07-18T02:57:34.401Z,95896
2015-07-18T02:57:52.979Z,95894
2015-07-18T02:58:11.371Z,95902
2015-07-18T02:58:29.793Z,95893
2015-07-18T02:58:48.262Z,95896
2015-07-18T02:59:06.747Z,95890
2015-07-18T02:59:25.451Z,95901
2015-07-18T02:59:44.169Z,95904
2015-07-18T03:00:02.656Z,95907
2015-07-18T03:00:21.218Z,95915
2015-07-18T03:00:39.671Z,95903
2015-07-18T03:00:58.236Z,95900
2015-07-18T03:01:16.923Z,95901
2015-07-18T03:01:35.376Z,95890
2015-07-18T03:01:53.923Z,95898
2015-07-18T03:02:12.613Z,95898
2015-07-18T03:02:31.066Z,95901
2015-07-18T03:02:49.566Z,95904
2015-07-18T03:03:08.084Z,95896
2015-07-18T03:03:26.459Z,95893
2015-07-18T03:03:44.927Z,95896
2015-07-18T03:04:03.367Z,95896
2015-07-18T03:04:21.820Z,95893
2015-07-18T03:04:40.351Z,95893
2015-07-18T03:04:58.773Z,95896
2015-07-18T03:05:17.275Z,95892
2015-07-18T03:05:35.713Z,95895
2015-07-18T03:05:54.322Z,95884
2015-07-18T03:06:12.777Z,95893
2015-07-18T03:06:30.761Z,95896
2015-07-18T03:06:49.215Z,95893
2015-07-18T03:07:07.638Z,95896
2015-07-18T03:07:26.076Z,95890
2015-07-18T03:07:44.498Z,95887
2015-07-18T03:08:02.904Z,95898
2015-07-18T03:08:20.953Z,95898
2015-07-18T03:08:39.359Z,95895
2015-07-18T03:08:57.859Z,95895
2015-07-18T03:09:16.330Z,95892
2015-07-18T03:09:34.799Z,95895
2015-07-18T03:09:53.174Z,95895
2015-07-18T03:10:11.598Z,95892
2015-07-18T03:10:30.332Z,95889
2015-07-18T03:10:48.894Z,95886
2015-07-18T03:11:07.269Z,95892
2015-07-18T03:11:25.755Z,95892
2015-07-18T03:11:44.114Z,95897
2015-07-18T03:12:02.614Z,95900
2015-07-18T03:12:21.070Z,95900
2015-07-18T03:12:39.664Z,95897
2015-07-18T03:12:58.164Z,95891
2015-07-18T03:13:16.588Z,95894
2015-07-18T03:13:35.010Z,95897
2015-07-18T03:13:53.385Z,95895
2015-07-18T03:14:11.869Z,95894
2015-07-18T03:14:30.246Z,95894
2015-07-18T03:14:48.668Z,95897
2015-07-18T03:15:07.074Z,95886
2015-07-18T03:15:25.544Z,95883
2015-07-18T03:15:43.825Z,95886
2015-07-18T03:16:02.544Z,95886
2015-07-18T03:16:20.938Z,95886
2015-07-18T03:16:39.438Z,95886
2015-07-18T03:16:58.188Z,95886
2015-07-18T03:17:16.735Z,95878
2015-07-18T03:17:35.111Z,95873
2015-07-18T03:17:53.657Z,95881
2015-07-18T03:18:12.079Z,95878
2015-07-18T03:18:30.566Z,95878
2015-07-18T03:18:49.159Z,95878
2015-07-18T03:19:07.706Z,95881
2015-07-18T03:19:26.146Z,95878
2015-07-18T03:19:44.599Z,95881
2015-07-18T03:20:03.099Z,95889
2015-07-18T03:20:21.490Z,95878
2015-07-18T03:20:39.961Z,95881
2015-07-18T03:20:58.336Z,95882
2015-07-18T03:21:16.899Z,95888
2015-07-18T03:21:35.415Z,95880
2015-07-18T03:21:54.025Z,95883
2015-07-18T03:22:12.556Z,95871
2015-07-18T03:22:30.964Z,95865
2015-07-18T03:22:49.667Z,95873
2015-07-18T03:23:08.183Z,95873
2015-07-18T03:23:26.621Z,95873
2015-07-18T03:23:45.170Z,95876
2015-07-18T03:24:03.592Z,95870
2015-07-18T03:24:21.999Z,95875
2015-07-18T03:24:40.640Z,95875
2015-07-18T03:24:59.125Z,95878
2015-07-18T03:25:17.578Z,95878
2015-07-18T03:25:36.064Z,95888
2015-07-18T03:25:54.486Z,95877
2015-07-18T03:26:13.111Z,95868
2015-07-18T03:26:31.642Z,95873
2015-07-18T03:26:50.286Z,95870
2015-07-18T03:27:08.708Z,95870
2015-07-18T03:27:27.223Z,95876
2015-07-18T03:27:45.771Z,95875
2015-07-18T03:28:04.224Z,95873
2015-07-18T03:28:22.584Z,95875
2015-07-18T03:28:40.961Z,95870
2015-07-18T03:28:59.539Z,95879
2015-07-18T03:29:18.117Z,95874
2015-07-18T03:29:36.726Z,95872
2015-07-18T03:29:55.228Z,95875
2015-07-18T03:30:13.775Z,95866
2015-07-18T03:30:32.416Z,95866
2015-07-18T03:30:50.887Z,95874
2015-07-18T03:31:09.324Z,95865
2015-07-18T03:31:27.902Z,95868
2015-07-18T03:31:46.545Z,95860
2015-07-18T03:32:05.217Z,95869
2015-07-18T03:32:23.639Z,95871
2015-07-18T03:32:42.095Z,95865
2015-07-18T03:33:00.673Z,95868
2015-07-18T03:33:19.173Z,95863
2015-07-18T03:33:37.954Z,95866
2015-07-18T03:33:56.502Z,95863
2015-07-18T03:34:14.283Z,95866
2015-07-18T03:34:33.002Z,95859
2015-07-18T03:34:51.629Z,95870
2015-07-18T03:35:10.066Z,95864
2015-07-18T03:35:28.566Z,95861
2015-07-18T03:35:46.959Z,95864
2015-07-18T03:36:05.381Z,95864
2015-07-18T03:36:24.100Z,95870
2015-07-18T03:36:42.709Z,95870
2015-07-18T03:37:01.102Z,95875
2015-07-18T03:37:19.508Z,95866
2015-07-18T03:37:37.961Z,95870
2015-07-18T03:37:56.463Z,95876
2015-07-18T03:38:15.041Z,95868
2015-07-18T03:38:33.885Z,95868
2015-07-18T03:38:52.278Z,95874
2015-07-18T03:39:10.731Z,95871
2015-07-18T03:39:29.481Z,95880
2015-07-18T03:39:48.074Z,95860
2015-07-18T03:40:06.795Z,95871
2015-07-18T03:40:25.170Z,95877
2015-07-18T03:40:43.795Z,95871
2015-07-18T03:41:02.563Z,95871
2015-07-18T03:41:20.547Z,95871
2015-07-18T03:41:38.953Z,95862
2015-07-18T03:41:57.565Z,95862
2015-07-18T03:42:16.127Z,95867
2015-07-18T03:42:34.705Z,95867
2015-07-18T03:42:53.221Z,95861
2015-07-18T03:43:11.817Z,95855
2015-07-18T03:43:30.629Z,95866
2015-07-18T03:43:49.098Z,95863
2015-07-18T03:44:07.677Z,95858
2015-07-18T03:44:26.443Z,95861
2015-07-18T03:44:45.005Z,95855
2015-07-18T03:45:03.524Z,95863
2015-07-18T03:45:21.930Z,95866
2015-07-18T03:45:40.336Z,95855
2015-07-18T03:45:58.883Z,95860
2015-07-18T03:46:17.556Z,95860
2015-07-18T03:46:35.947Z,95861
2015-07-18T03:46:54.322Z,95864
2015-07-18T03:47:12.762Z,95856
2015-07-18T03:47:31.215Z,95856
2015-07-18T03:47:49.794Z,95861
2015-07-18T03:48:08.374Z,95847
2015-07-18T03:48:26.811Z,95853
2015-07-18T03:48:45.452Z,95853
2015-07-18T03:49:04.250Z,95845
2015-07-18T03:49:22.765Z,95863
2015-07-18T03:49:41.203Z,95855
2015-07-18T03:49:59.734Z,95850
2015-07-18T03:50:18.236Z,95853
2015-07-18T03:50:36.799Z,95845
2015-07-18T03:50:55.392Z,95856
2015-07-18T03:51:13.801Z,95855
2015-07-18T03:51:32.285Z,95855
2015-07-18T03:51:50.691Z,95860
2015-07-18T03:52:09.396Z,95851
2015-07-18T03:52:28.084Z,95860
2015-07-18T03:52:46.506Z,95848
2015-07-18T03:53:05.006Z,95851
2015-07-18T03:53:23.461Z,95856
2015-07-18T03:53:41.820Z,95850
2015-07-18T03:54:00.523Z,95845
2015-07-18T03:54:19.228Z,95853
2015-07-18T03:54:37.807Z,95851
2015-07-18T03:54:56.822Z,95862
2015-07-18T03:55:15.512Z,95845
2015-07-18T03:55:34.121Z,95845
2015-07-18T03:55:52.777Z,95848
2015-07-18T03:56:11.496Z,95853
2015-07-18T03:56:29.968Z,95853
2015-07-18T03:56:48.390Z,95844
2015-07-18T03:57:06.968Z,95847
2015-07-18T03:57:25.360Z,95847
2015-07-18T03:57:43.720Z,95856
2015-07-18T03:58:02.204Z,95844
2015-07-18T03:58:20.627Z,95853